Time;durP1;ratioP1;P1;durP2;ratioP2;P2;SDS_P1;SDS_P2;PMS_P1;PMS_P2;Temp;Humidity;BMP_temperature;BMP_pressure;BME280_temperature;BME280_humidity;BME280_pressure;Samples;Min_cycle;Max_cycle;Signal;HPM_P1;HPM_P2
2023/02/27 00:03:13;;;;;;;3.17;1.50;;;-1.90;99.90;;;;;;8328268;28;20044;-80
2023/02/27 00:07:13;;;;;;;3.80;1.90;;;-1.90;99.90;;;;;;8320871;28;20029;-80
2023/02/27 00:11:14;;;;;;;3.55;1.00;;;-1.90;99.90;;;;;;8320721;28;20025;-79
2023/02/27 00:15:17;;;;;;;2.97;1.17;;;-2.00;99.90;;;;;;8337704;23;20190;-79
2023/02/27 00:19:18;;;;;;;4.75;1.10;;;-2.00;99.90;;;;;;8329699;28;20087;-80
2023/02/27 00:23:18;;;;;;;1.08;0.95;;;-2.10;99.90;;;;;;8332066;28;20017;-80
2023/02/27 00:27:19;;;;;;;3.33;1.85;;;-2.00;99.90;;;;;;8329414;28;20434;-80
2023/02/27 00:31:20;;;;;;;1.25;1.15;;;-2.00;99.90;;;;;;8322385;28;20032;-80
2023/02/27 00:35:21;;;;;;;1.23;0.68;;;-1.90;99.90;;;;;;8337991;28;20507;-80
2023/02/27 00:39:21;;;;;;;2.90;1.60;;;-2.00;99.90;;;;;;8314639;28;20052;-80
2023/02/27 00:43:22;;;;;;;1.27;0.70;;;-1.90;99.90;;;;;;8333542;22;20049;-80
2023/02/27 00:47:22;;;;;;;3.08;1.42;;;-1.90;99.90;;;;;;8409455;28;20046;-80
2023/02/27 00:51:23;;;;;;;2.35;1.38;;;-1.90;99.90;;;;;;8410821;28;20033;-80
2023/02/27 00:55:23;;;;;;;0.65;0.63;;;-1.90;99.90;;;;;;8390224;28;20071;-79
2023/02/27 00:59:24;;;;;;;2.10;1.17;;;-2.00;99.90;;;;;;8384870;28;20066;-80
2023/02/27 01:03:24;;;;;;;1.25;0.93;;;-1.90;99.90;;;;;;8375591;28;20021;-79
2023/02/27 01:07:25;;;;;;;0.73;0.70;;;-2.00;99.90;;;;;;8393944;28;20020;-80
2023/02/27 01:11:25;;;;;;;1.73;1.30;;;-2.00;99.90;;;;;;8375717;28;20035;-79
2023/02/27 01:15:26;;;;;;;1.45;1.35;;;-1.90;99.90;;;;;;8364474;28;20032;-80
2023/02/27 01:19:27;;;;;;;1.90;0.90;;;-1.90;99.90;;;;;;8361294;28;20049;-80
2023/02/27 01:23:27;;;;;;;0.93;0.68;;;-1.90;99.90;;;;;;8382295;28;20056;-80
2023/02/27 01:27:28;;;;;;;3.22;1.55;;;-1.90;99.90;;;;;;8372868;28;20113;-78
2023/02/27 01:31:29;;;;;;;1.77;1.45;;;-2.00;99.90;;;;;;8388335;28;20036;-80
2023/02/27 01:35:29;;;;;;;2.63;0.75;;;-2.00;99.90;;;;;;8371444;22;20033;-80
2023/02/27 01:39:31;;;;;;;2.65;1.42;;;-2.00;99.90;;;;;;8353943;28;20104;-80
2023/02/27 01:43:33;;;;;;;1.73;1.27;;;-2.10;99.90;;;;;;8367879;22;20084;-80
2023/02/27 01:47:35;;;;;;;0.40;0.40;;;-2.10;99.90;;;;;;8331019;28;20086;-80
2023/02/27 01:51:41;;;;;;;3.97;1.38;;;-2.10;99.90;;;;;;8334593;28;20022;-80
2023/02/27 01:55:42;;;;;;;4.63;1.17;;;-2.20;99.90;;;;;;8360385;22;20051;-80
2023/02/27 01:59:42;;;;;;;1.75;1.33;;;-2.20;99.90;;;;;;8355637;28;20029;-80
2023/02/27 02:03:51;;;;;;;3.03;1.58;;;-2.20;99.90;;;;;;8360763;28;20066;-80
2023/02/27 02:07:52;;;;;;;2.20;1.40;;;-2.20;99.90;;;;;;8370312;28;20101;-80
2023/02/27 02:11:54;;;;;;;2.33;1.38;;;-2.20;99.90;;;;;;8374756;28;20033;-79
2023/02/27 02:16:25;;;;;;;2.45;1.63;;;-2.20;99.90;;;;;;8346241;28;20075;-79
2023/02/27 02:20:59;;;;;;;1.38;1.20;;;-2.30;99.90;;;;;;8340193;28;20493;-79
2023/02/27 02:25:35;;;;;;;1.58;1.23;;;-2.40;99.90;;;;;;8337793;28;20130;-79
2023/02/27 02:30:06;;;;;;;1.70;1.08;;;-2.50;99.90;;;;;;8342600;28;20024;-80
2023/02/27 02:34:13;;;;;;;5.00;1.58;;;-2.50;99.90;;;;;;8335554;28;20033;-79
2023/02/27 02:38:32;;;;;;;3.05;1.10;;;-2.60;99.90;;;;;;8342091;28;20120;-79
2023/02/27 02:42:44;;;;;;;2.63;1.17;;;-2.70;99.90;;;;;;8360493;28;20029;-80
2023/02/27 02:46:50;;;;;;;3.53;1.63;;;-2.70;99.90;;;;;;8337993;28;20029;-79
2023/02/27 02:51:09;;;;;;;2.00;1.30;;;-2.70;99.90;;;;;;8362674;28;20083;-80
2023/02/27 02:55:23;;;;;;;1.90;1.35;;;-2.60;99.90;;;;;;8351890;28;20081;-80
2023/02/27 02:59:51;;;;;;;1.23;0.82;;;-2.70;99.90;;;;;;8363305;28;20496;-80
2023/02/27 03:04:02;;;;;;;2.03;1.50;;;-2.60;99.90;;;;;;8325523;28;20414;-80
2023/02/27 03:08:27;;;;;;;1.42;1.13;;;-2.70;99.90;;;;;;8348542;28;20055;-79
2023/02/27 03:12:30;;;;;;;1.27;1.10;;;-2.60;99.90;;;;;;8350658;28;20111;-79
2023/02/27 03:16:39;;;;;;;1.27;1.10;;;-2.80;99.90;;;;;;8356085;28;20101;-79
2023/02/27 03:20:41;;;;;;;;;;;-2.80;99.90;;;;;;8351800;28;20365;-79
2023/02/27 03:24:51;;;;;;;2.33;1.40;;;-2.80;99.90;;;;;;8358058;28;20395;-80
2023/02/27 03:29:00;;;;;;;1.83;1.23;;;-2.70;99.90;;;;;;8335463;28;20564;-79
2023/02/27 03:33:17;;;;;;;2.67;1.58;;;-2.70;99.90;;;;;;8352023;28;20070;-79
2023/02/27 03:37:23;;;;;;;0.90;0.75;;;-2.70;99.90;;;;;;8344575;28;20024;-80
2023/02/27 03:41:34;;;;;;;0.85;0.65;;;-2.70;99.90;;;;;;8327298;28;20020;-79
2023/02/27 03:45:37;;;;;;;2.88;1.10;;;-2.70;99.90;;;;;;8329319;28;21263;-79
2023/02/27 03:49:38;;;;;;;1.27;0.82;;;-2.60;99.90;;;;;;8339603;28;20630;-80
2023/02/27 03:53:53;;;;;;;1.58;0.95;;;-2.70;99.90;;;;;;8349939;28;20025;-80
2023/02/27 03:57:54;;;;;;;0.77;0.63;;;-2.70;99.90;;;;;;8363777;28;20408;-79
2023/02/27 04:01:55;;;;;;;1.52;1.40;;;-2.70;99.90;;;;;;8354385;28;20055;-80
2023/02/27 04:07:21;;;;;;;2.00;1.65;;;-2.70;99.90;;;;;;8352130;28;20464;-79
2023/02/27 04:10:31;;;;;;;1.33;1.00;;;-2.70;99.90;;;;;;8372027;28;20476;-79
2023/02/27 04:14:48;;;;;;;2.78;1.67;;;-2.80;99.90;;;;;;8370992;28;20037;-80
2023/02/27 04:19:17;;;;;;;2.00;1.77;;;-2.90;99.90;;;;;;8353501;28;20048;-80
2023/02/27 04:23:31;;;;;;;1.13;0.93;;;-2.70;99.90;;;;;;8348882;22;20028;-79
2023/02/27 04:27:50;;;;;;;1.20;0.88;;;-2.60;99.90;;;;;;8358782;28;20029;-80
2023/02/27 04:32:05;;;;;;;2.65;1.42;;;-2.60;99.90;;;;;;8361738;28;20033;-80
2023/02/27 04:36:55;;;;;;;;;;;;;;;;;;;;;
2023/02/27 04:41:02;;;;;;;5.55;1.70;;;-2.60;99.90;;;;;;8283924;28;20051;-80
2023/02/27 04:45:07;;;;;;;5.68;2.22;;;-2.60;99.90;;;;;;8366660;28;20035;-80
2023/02/27 04:49:17;;;;;;;1.98;1.38;;;-2.50;99.90;;;;;;8379975;28;20024;-78
2023/02/27 04:53:24;;;;;;;2.78;1.80;;;-2.60;99.90;;;;;;8363905;28;20027;-79
2023/02/27 04:57:33;;;;;;;2.00;1.17;;;-2.60;99.90;;;;;;8385364;28;20063;-79
2023/02/27 05:01:42;;;;;;;1.27;1.10;;;-2.50;99.90;;;;;;8379993;28;20644;-79
2023/02/27 05:05:46;;;;;;;1.77;1.30;;;-2.50;99.90;;;;;;8364899;28;20037;-79
2023/02/27 05:10:08;;;;;;;3.47;0.95;;;-2.50;99.90;;;;;;8365269;28;20041;-79
2023/02/27 05:14:24;;;;;;;4.35;2.33;;;-2.40;99.90;;;;;;8366347;28;20032;-81
2023/02/27 05:18:25;;;;;;;2.72;1.55;;;-2.40;99.90;;;;;;8363128;28;20078;-80
2023/02/27 05:22:48;;;;;;;1.80;1.15;;;-2.50;99.90;;;;;;8368793;28;20129;-80
2023/02/27 05:27:23;;;;;;;2.10;1.30;;;-2.40;99.90;;;;;;8374515;28;20029;-79
2023/02/27 05:31:31;;;;;;;2.63;1.52;;;-2.40;99.90;;;;;;8367248;28;20432;-80
2023/02/27 05:35:51;;;;;;;2.65;1.83;;;-2.40;99.90;;;;;;8362357;28;20029;-79
2023/02/27 05:39:52;;;;;;;;;;;-2.40;99.90;;;;;;8385906;28;20049;-79
2023/02/27 05:44:20;;;;;;;2.92;2.05;;;-2.30;99.90;;;;;;8368944;28;19912;-80
2023/02/27 05:48:26;;;;;;;5.00;2.08;;;-2.30;99.90;;;;;;8375372;28;20119;-79
2023/02/27 05:52:29;;;;;;;2.75;1.73;;;-2.40;99.90;;;;;;8383735;28;20074;-79
2023/02/27 05:56:32;;;;;;;2.35;1.58;;;-2.40;99.90;;;;;;8367126;28;20029;-79
2023/02/27 06:00:40;;;;;;;2.33;1.80;;;-2.40;99.90;;;;;;8369061;28;20021;-79
2023/02/27 06:04:41;;;;;;;2.17;1.63;;;-2.30;99.90;;;;;;8363920;28;20025;-79
2023/02/27 06:08:42;;;;;;;1.27;1.15;;;-2.40;99.90;;;;;;8369592;28;20459;-78
2023/02/27 06:12:42;;;;;;;4.75;1.95;;;-2.30;99.90;;;;;;8386221;28;20033;-77
2023/02/27 06:16:43;;;;;;;3.67;1.77;;;-2.30;99.90;;;;;;8380967;28;20416;-79
2023/02/27 06:20:45;;;;;;;2.25;1.63;;;-2.30;99.90;;;;;;8393312;28;20074;-80
2023/02/27 06:24:46;;;;;;;3.88;1.95;;;-2.30;99.90;;;;;;8379068;28;20025;-79
2023/02/27 06:28:46;;;;;;;2.60;1.50;;;-2.30;99.90;;;;;;8380696;28;20594;-79
2023/02/27 06:32:47;;;;;;;1.80;1.10;;;-2.20;99.90;;;;;;8382215;28;20401;-79
2023/02/27 06:36:47;;;;;;;2.28;0.95;;;-2.20;99.90;;;;;;8383570;28;20036;-78
2023/02/27 06:40:50;;;;;;;2.33;2.00;;;-2.20;99.90;;;;;;8379188;28;20381;-79
2023/02/27 06:44:50;;;;;;;3.45;1.30;;;-2.20;99.90;;;;;;8376689;28;20032;-80
2023/02/27 06:48:51;;;;;;;1.00;0.68;;;-2.20;99.90;;;;;;8374598;28;20036;-80
2023/02/27 06:52:51;;;;;;;2.10;1.23;;;-2.20;99.90;;;;;;8379831;28;20020;-79
2023/02/27 06:56:52;;;;;;;1.85;1.33;;;-2.20;99.90;;;;;;8372587;28;20549;-80
2023/02/27 07:00:52;;;;;;;2.63;1.13;;;-2.10;99.90;;;;;;8381903;28;20017;-80
2023/02/27 07:04:53;;;;;;;1.95;1.23;;;-2.20;99.90;;;;;;8370273;28;20040;-80
2023/02/27 07:08:53;;;;;;;1.02;0.93;;;-2.10;99.90;;;;;;8368598;28;20036;-80
2023/02/27 07:12:54;;;;;;;3.45;1.60;;;-2.10;99.90;;;;;;8377612;28;20055;-79
2023/02/27 07:16:55;;;;;;;1.80;1.42;;;-2.00;99.90;;;;;;8381018;28;20024;-80
2023/02/27 07:20:55;;;;;;;2.72;1.65;;;-1.90;99.90;;;;;;8380766;28;20402;-80
2023/02/27 07:24:56;;;;;;;3.22;1.48;;;-2.00;99.90;;;;;;8378681;28;20437;-80
2023/02/27 07:28:56;;;;;;;3.33;2.13;;;-1.90;99.90;;;;;;8365050;28;20280;-80
2023/02/27 07:32:57;;;;;;;2.38;1.30;;;-2.00;99.90;;;;;;8377081;28;20017;-79
2023/02/27 07:36:57;;;;;;;1.30;1.13;;;-1.90;99.90;;;;;;8385027;28;20025;-80
2023/02/27 07:40:58;;;;;;;2.17;1.75;;;-1.90;99.90;;;;;;8371611;28;20012;-79
2023/02/27 07:44:59;;;;;;;1.00;1.00;;;-1.80;99.90;;;;;;8360690;28;20025;-79
2023/02/27 07:48:59;;;;;;;2.72;1.80;;;-1.80;99.90;;;;;;8384851;28;20512;-80
2023/02/27 07:53:00;;;;;;;2.22;1.38;;;-1.70;99.90;;;;;;8375101;28;20342;-80
2023/02/27 07:57:00;;;;;;;2.13;1.48;;;-1.70;99.90;;;;;;8371232;28;20477;-79
2023/02/27 08:01:01;;;;;;;1.65;1.00;;;-1.70;99.90;;;;;;8372526;28;20048;-79
2023/02/27 08:05:02;;;;;;;3.58;2.08;;;-1.70;99.90;;;;;;8373255;28;20055;-80
2023/02/27 08:09:02;;;;;;;1.23;1.13;;;-1.60;99.90;;;;;;8366646;28;20036;-80
2023/02/27 08:13:03;;;;;;;3.72;1.92;;;-1.60;99.90;;;;;;8365887;28;20017;-80
2023/02/27 08:17:04;;;;;;;4.13;1.77;;;-1.60;99.90;;;;;;8369866;28;20120;-80
2023/02/27 08:21:05;;;;;;;3.03;1.58;;;-1.60;99.90;;;;;;8369899;28;20056;-80
2023/02/27 08:25:09;;;;;;;4.45;1.65;;;-1.70;99.90;;;;;;8366893;28;20039;-80
2023/02/27 08:29:10;;;;;;;4.93;1.90;;;-1.50;99.90;;;;;;8361697;28;20116;-79
2023/02/27 08:33:10;;;;;;;2.25;1.65;;;-1.40;99.90;;;;;;8369504;28;20033;-80
2023/02/27 08:37:11;;;;;;;1.42;1.15;;;-1.50;99.90;;;;;;8366547;28;20025;-79
2023/02/27 08:41:11;;;;;;;2.67;1.70;;;-1.40;99.90;;;;;;8363285;28;20405;-79
2023/02/27 08:45:12;;;;;;;3.90;1.58;;;-1.40;99.90;;;;;;8355861;28;20056;-79
2023/02/27 08:49:13;;;;;;;4.28;2.28;;;-1.50;99.90;;;;;;8360253;28;20033;-79
2023/02/27 08:53:15;;;;;;;2.35;1.13;;;-1.50;99.90;;;;;;8371734;28;20060;-79
2023/02/27 08:57:15;;;;;;;3.80;2.15;;;-1.50;99.90;;;;;;8365149;28;20031;-79
2023/02/27 09:01:16;;;;;;;7.05;1.65;;;-1.50;99.90;;;;;;8361320;28;20078;-79
2023/02/27 09:05:17;;;;;;;4.57;2.50;;;-1.50;99.90;;;;;;8363817;28;20033;-80
2023/02/27 09:09:17;;;;;;;2.90;2.00;;;-1.50;99.90;;;;;;8375760;28;20028;-78
2023/02/27 09:13:18;;;;;;;4.63;1.73;;;-1.50;99.90;;;;;;8381463;28;20041;-79
2023/02/27 09:17:19;;;;;;;6.45;2.22;;;-1.40;99.90;;;;;;8373351;28;20113;-79
2023/02/27 09:21:19;;;;;;;3.88;1.80;;;-1.40;99.90;;;;;;8371718;28;20056;-79
2023/02/27 09:25:22;;;;;;;1.65;1.30;;;-1.30;99.90;;;;;;8366735;28;20182;-79
2023/02/27 09:29:24;;;;;;;3.53;1.83;;;-1.40;99.90;;;;;;8366080;28;20025;-80
2023/02/27 09:33:27;;;;;;;2.13;1.17;;;-1.30;99.90;;;;;;8377211;28;20028;-80
2023/02/27 09:37:27;;;;;;;4.57;2.35;;;-1.30;99.90;;;;;;8383427;28;20039;-80
2023/02/27 09:41:56;;;;;;;2.53;1.80;;;-1.30;99.90;;;;;;8376414;28;20021;-78
2023/02/27 09:45:59;;;;;;;2.55;1.40;;;-1.30;99.90;;;;;;8365486;28;20132;-80
2023/02/27 09:50:04;;;;;;;4.60;1.50;;;-1.20;99.90;;;;;;8383446;28;20458;-80
2023/02/27 09:54:05;;;;;;;4.05;1.60;;;-1.20;99.90;;;;;;8378308;28;20106;-79
2023/02/27 09:58:38;;;;;;;4.22;2.25;;;-1.10;99.90;;;;;;8372493;28;20021;-79
2023/02/27 10:03:01;;;;;;;1.95;1.30;;;-1.00;99.90;;;;;;8328252;28;20056;-79
2023/02/27 10:07:28;;;;;;;2.08;1.60;;;-1.00;99.90;;;;;;8368524;28;20049;-79
2023/02/27 10:11:56;;;;;;;7.22;2.28;;;-1.10;99.90;;;;;;8373027;28;20025;-79
2023/02/27 10:15:58;;;;;;;2.33;1.70;;;-1.10;99.90;;;;;;8371140;28;20577;-80
2023/02/27 10:20:03;;;;;;;3.65;1.80;;;-1.10;99.90;;;;;;8368184;28;20021;-79
2023/02/27 10:24:28;;;;;;;4.72;1.75;;;-1.00;99.90;;;;;;8382847;28;20047;-79
2023/02/27 10:28:29;;;;;;;2.17;1.58;;;-1.00;99.90;;;;;;8376086;28;20477;-80
2023/02/27 10:32:33;;;;;;;2.65;1.80;;;-1.00;99.90;;;;;;8370929;28;20017;-79
2023/02/27 10:36:33;;;;;;;1.88;1.20;;;-1.00;99.90;;;;;;8374858;28;20033;-80
2023/02/27 10:40:37;;;;;;;1.55;1.45;;;-0.80;99.90;;;;;;8374072;28;20016;-79
2023/02/27 10:44:38;;;;;;;1.88;1.48;;;-0.80;99.90;;;;;;8364639;28;20515;-77
2023/02/27 10:48:39;;;;;;;2.10;1.55;;;-0.80;99.90;;;;;;8380183;28;20119;-80
2023/02/27 10:52:52;;;;;;;4.13;2.15;;;-0.80;99.90;;;;;;8375876;28;20021;-79
2023/02/27 10:56:56;;;;;;;3.60;1.73;;;-0.60;99.90;;;;;;8364895;28;20033;-79
2023/02/27 11:00:59;;;;;;;3.05;1.85;;;-0.50;99.90;;;;;;8370071;28;20031;-79
2023/02/27 11:05:00;;;;;;;2.97;1.40;;;-0.40;99.90;;;;;;8384042;28;20503;-79
2023/02/27 11:09:24;;;;;;;1.27;1.08;;;-0.40;99.90;;;;;;8382125;28;20025;-79
2023/02/27 11:13:27;;;;;;;2.28;1.13;;;-0.10;99.90;;;;;;8374977;28;20401;-80
2023/02/27 11:17:33;;;;;;;1.90;1.33;;;-0.20;99.90;;;;;;8373924;28;20040;-79
2023/02/27 11:21:33;;;;;;;2.08;1.25;;;-0.20;99.90;;;;;;8368859;28;20013;-78
2023/02/27 11:25:34;;;;;;;3.30;1.48;;;-0.10;99.90;;;;;;8382659;28;20115;-79
2023/02/27 11:29:35;;;;;;;2.55;1.83;;;0.00;99.90;;;;;;8374248;28;20596;-80
2023/02/27 11:33:39;;;;;;;3.03;1.55;;;-0.10;99.90;;;;;;8367641;28;20032;-80
2023/02/27 11:37:40;;;;;;;1.48;1.10;;;-0.10;99.90;;;;;;8379785;28;20029;-79
2023/02/27 11:41:43;;;;;;;3.53;2.42;;;0.10;99.90;;;;;;8372545;28;20028;-79
2023/02/27 11:45:51;;;;;;;2.30;1.70;;;0.30;99.90;;;;;;8374578;28;20182;-79
2023/02/27 11:50:11;;;;;;;1.67;1.40;;;0.20;99.90;;;;;;8371172;28;20025;-78
2023/02/27 11:54:34;;;;;;;1.98;1.33;;;0.30;99.90;;;;;;8372813;28;20029;-79
2023/02/27 11:58:42;;;;;;;2.70;1.85;;;0.10;99.90;;;;;;8372632;28;20033;-79
2023/02/27 12:02:55;;;;;;;3.65;1.92;;;-0.10;99.90;;;;;;8365900;28;20549;-79
2023/02/27 12:07:09;;;;;;;3.45;1.63;;;0.60;99.90;;;;;;8370791;28;20095;-79
2023/02/27 12:11:29;;;;;;;2.50;1.65;;;1.20;99.90;;;;;;8369551;28;20036;-79
2023/02/27 12:15:39;;;;;;;4.03;1.17;;;1.50;99.90;;;;;;8369507;28;20037;-77
2023/02/27 12:20:03;;;;;;;7.53;1.65;;;1.40;99.90;;;;;;8374105;28;20040;-79
2023/02/27 12:24:20;;;;;;;2.22;1.40;;;1.80;99.90;;;;;;8374679;28;20025;-79
2023/02/27 12:28:39;;;;;;;1.98;1.52;;;1.90;99.90;;;;;;8352623;28;20112;-79
2023/02/27 12:33:08;;;;;;;4.18;1.92;;;1.50;99.90;;;;;;8360099;28;20166;-79
2023/02/27 12:37:14;;;;;;;2.17;1.70;;;1.20;99.90;;;;;;8369121;28;20029;-79
2023/02/27 12:41:32;;;;;;;2.47;1.10;;;1.50;99.90;;;;;;8384000;28;20500;-80
2023/02/27 12:46:29;;;;;;;3.72;1.88;;;1.50;99.90;;;;;;8367086;28;20031;-79
2023/02/27 12:51:07;;;;;;;3.75;1.63;;;1.30;99.90;;;;;;8236870;28;20042;-79
2023/02/27 12:55:16;;;;;;;3.58;1.45;;;1.00;99.90;;;;;;8307530;28;20075;-78
2023/02/27 12:59:46;;;;;;;2.45;1.00;;;0.90;99.90;;;;;;8355406;28;20052;-79
2023/02/27 13:03:55;;;;;;;4.00;1.17;;;1.10;99.90;;;;;;8335612;28;20078;-79
2023/02/27 13:08:17;;;;;;;2.55;1.63;;;1.20;99.90;;;;;;8357308;28;20515;-78
2023/02/27 13:12:40;;;;;;;2.65;1.73;;;0.70;99.90;;;;;;8368587;28;20623;-79
2023/02/27 13:16:45;;;;;;;3.58;1.88;;;0.40;99.90;;;;;;8367055;28;20088;-80
2023/02/27 13:20:52;;;;;;;2.45;1.65;;;0.50;99.90;;;;;;8371061;28;20034;-80
2023/02/27 13:24:56;;;;;;;2.92;0.90;;;0.10;99.90;;;;;;8373486;28;20059;-79
2023/02/27 13:28:59;;;;;;;3.72;1.33;;;0.20;99.90;;;;;;8379863;28;20669;-79
2023/02/27 13:33:30;;;;;;;3.30;1.77;;;0.20;99.90;;;;;;8365565;28;20025;-79
2023/02/27 13:37:50;;;;;;;;;;;0.10;99.90;;;;;;8382312;28;20064;-79
2023/02/27 13:41:51;;;;;;;3.25;1.55;;;0.00;99.90;;;;;;8368019;28;20284;-79
2023/02/27 13:45:57;;;;;;;1.73;1.17;;;0.20;99.90;;;;;;8368512;28;20033;-79
2023/02/27 13:50:23;;;;;;;3.88;1.45;;;0.10;99.90;;;;;;8380677;28;20032;-79
2023/02/27 13:54:26;;;;;;;2.95;1.20;;;0.00;99.90;;;;;;8358485;28;20112;-80
2023/02/27 13:58:27;;;;;;;2.25;1.15;;;0.10;99.90;;;;;;8369027;28;20039;-79
2023/02/27 14:02:41;;;;;;;2.63;1.33;;;0.10;99.90;;;;;;8365727;28;20025;-79
2023/02/27 14:06:44;;;;;;;1.48;1.05;;;0.00;99.90;;;;;;8367783;28;20044;-80
2023/02/27 14:11:14;;;;;;;1.88;0.93;;;0.10;99.90;;;;;;8371159;28;20035;-79
2023/02/27 14:15:21;;;;;;;1.80;0.85;;;0.10;99.90;;;;;;8362651;28;20033;-79
2023/02/27 14:19:22;;;;;;;1.15;0.75;;;0.20;99.90;;;;;;8368235;28;20025;-79
2023/02/27 14:23:26;;;;;;;1.88;1.15;;;0.50;99.90;;;;;;8371396;28;20068;-79
2023/02/27 14:27:43;;;;;;;0.65;0.65;;;0.50;99.90;;;;;;8377531;28;20508;-79
2023/02/27 14:31:44;;;;;;;1.65;1.25;;;0.50;99.90;;;;;;8370174;28;20037;-79
2023/02/27 14:36:02;;;;;;;2.55;1.48;;;0.70;99.90;;;;;;8373206;28;20046;-80
2023/02/27 14:40:06;;;;;;;0.80;0.75;;;0.90;99.90;;;;;;8373538;28;20020;-78
2023/02/27 14:44:17;;;;;;;2.22;0.90;;;0.60;99.90;;;;;;8370968;28;20062;-78
2023/02/27 14:48:26;;;;;;;1.40;1.10;;;0.50;99.90;;;;;;8371902;28;20593;-80
2023/02/27 14:52:29;;;;;;;2.97;0.80;;;0.20;99.90;;;;;;8379005;28;20578;-80
2023/02/27 14:56:31;;;;;;;2.10;0.90;;;0.30;99.90;;;;;;8374025;28;20074;-80
2023/02/27 15:00:34;;;;;;;2.00;1.00;;;0.40;99.90;;;;;;8369138;28;20025;-80
2023/02/27 15:04:34;;;;;;;1.33;0.90;;;0.30;99.90;;;;;;8373164;28;20493;-80
2023/02/27 15:08:38;;;;;;;2.20;1.40;;;0.30;99.90;;;;;;8371545;28;20033;-80
2023/02/27 15:12:39;;;;;;;1.70;0.90;;;0.20;99.90;;;;;;8378740;28;20391;-80
2023/02/27 15:16:41;;;;;;;1.30;1.10;;;0.00;99.90;;;;;;8371305;28;20055;-80
2023/02/27 15:20:41;;;;;;;1.00;0.90;;;0.10;99.90;;;;;;8383278;28;20493;-80
2023/02/27 15:24:45;;;;;;;1.52;1.05;;;0.20;99.90;;;;;;8365631;28;20028;-80
2023/02/27 15:28:47;;;;;;;1.02;0.75;;;0.00;99.90;;;;;;8371298;28;20097;-80
2023/02/27 15:32:48;;;;;;;0.60;0.60;;;-0.20;99.90;;;;;;8378191;28;20024;-80
2023/02/27 15:36:55;;;;;;;1.33;0.70;;;-0.20;99.90;;;;;;8368066;28;20060;-80
2023/02/27 15:41:00;;;;;;;1.27;1.08;;;-0.10;99.90;;;;;;8371943;28;20044;-80
2023/02/27 15:45:02;;;;;;;1.77;1.10;;;-0.20;99.90;;;;;;8367247;28;20063;-79
2023/02/27 15:49:03;;;;;;;2.15;1.08;;;-0.20;99.90;;;;;;8363144;28;20024;-80
2023/02/27 15:53:11;;;;;;;1.52;1.02;;;-0.20;99.90;;;;;;8379844;28;20028;-81
2023/02/27 15:57:13;;;;;;;1.45;1.15;;;-0.10;99.90;;;;;;8383928;28;20024;-81
2023/02/27 16:01:21;;;;;;;1.30;0.73;;;0.00;99.90;;;;;;8365348;28;20017;-80
2023/02/27 16:05:28;;;;;;;2.08;1.25;;;0.00;99.90;;;;;;8372139;28;20060;-81
2023/02/27 16:09:32;;;;;;;1.83;0.90;;;-0.20;99.90;;;;;;8366831;28;20025;-80
2023/02/27 16:13:38;;;;;;;1.98;1.15;;;-0.40;99.90;;;;;;8370345;28;20644;-80
2023/02/27 16:17:52;;;;;;;2.90;1.67;;;-0.50;99.90;;;;;;8373394;28;20723;-81
2023/02/27 16:22:25;;;;;;;1.80;1.17;;;-0.70;99.90;;;;;;8378855;28;20035;-80
2023/02/27 16:26:35;;;;;;;1.63;1.10;;;-0.70;99.90;;;;;;8302610;28;20386;-80
2023/02/27 16:30:36;;;;;;;2.15;1.40;;;-0.80;99.90;;;;;;8364659;28;20025;-81
2023/02/27 16:34:39;;;;;;;1.38;1.17;;;-0.70;99.90;;;;;;8368697;28;20040;-81
2023/02/27 16:38:41;;;;;;;3.47;1.20;;;-0.80;99.90;;;;;;8367837;28;20025;-82
2023/02/27 16:42:42;;;;;;;1.80;1.10;;;-0.80;99.90;;;;;;8367565;28;20033;-81
2023/02/27 16:46:43;;;;;;;3.65;1.75;;;-0.80;99.90;;;;;;8369344;28;20024;-81
2023/02/27 16:50:44;;;;;;;1.30;1.00;;;-0.80;99.90;;;;;;8368548;28;20028;-81
2023/02/27 16:54:44;;;;;;;3.13;1.40;;;-0.80;99.90;;;;;;8368922;28;20489;-81
2023/02/27 16:58:45;;;;;;;10.73;2.25;;;-0.80;99.90;;;;;;8349777;28;20033;-80
2023/02/27 17:02:47;;;;;;;1.65;1.15;;;-0.80;99.90;;;;;;8344241;28;20413;-78
2023/02/27 17:06:47;;;;;;;3.05;1.38;;;-0.90;99.90;;;;;;8355804;28;20113;-79
2023/02/27 17:10:48;;;;;;;2.58;1.17;;;-0.90;99.90;;;;;;8348103;28;20034;-79
2023/02/27 17:14:48;;;;;;;1.52;1.15;;;-1.00;99.90;;;;;;8346325;28;20040;-80
2023/02/27 17:18:49;;;;;;;2.00;1.15;;;-0.90;99.90;;;;;;8346906;28;20236;-80
2023/02/27 17:22:49;;;;;;;2.67;1.63;;;-0.90;99.90;;;;;;8354561;28;20029;-78
2023/02/27 17:26:50;;;;;;;3.28;1.27;;;-0.90;99.90;;;;;;8342912;28;20025;-79
2023/02/27 17:30:50;;;;;;;3.15;1.45;;;-0.90;99.90;;;;;;8344204;28;20837;-80
2023/02/27 17:34:53;;;;;;;2.58;0.85;;;-1.00;99.90;;;;;;8343736;28;20025;-80
2023/02/27 17:38:59;;;;;;;1.73;1.00;;;-0.90;99.90;;;;;;8338084;28;20025;-79
2023/02/27 17:43:00;;;;;;;1.50;1.05;;;-1.00;99.90;;;;;;8342297;28;20025;-78
2023/02/27 17:47:00;;;;;;;2.72;1.50;;;-1.00;99.90;;;;;;8344434;28;20079;-79
2023/02/27 17:51:10;;;;;;;1.48;1.10;;;-1.00;99.90;;;;;;8343772;28;20032;-80
2023/02/27 17:55:11;;;;;;;2.08;1.10;;;-1.00;99.90;;;;;;8349047;28;20168;-80
2023/02/27 17:59:12;;;;;;;2.13;0.80;;;-1.00;99.90;;;;;;8346325;28;20021;-79
2023/02/27 18:03:12;;;;;;;0.95;0.65;;;-1.00;99.90;;;;;;8357433;28;20674;-80
2023/02/27 18:07:13;;;;;;;1.67;1.15;;;-1.00;99.90;;;;;;8349305;28;20031;-78
2023/02/27 18:11:17;;;;;;;1.05;0.80;;;-1.00;99.90;;;;;;8348943;28;20029;-81
2023/02/27 18:15:17;;;;;;;1.25;1.15;;;-0.90;99.90;;;;;;8354629;28;20030;-80
2023/02/27 18:19:19;;;;;;;4.88;1.17;;;-1.20;99.90;;;;;;8360384;28;20021;-80
2023/02/27 18:27:21;;;;;;;1.23;1.02;;;-1.20;99.90;;;;;;8427392;22;20125;-81
2023/02/27 18:31:32;;;;;;;1.00;0.90;;;-1.30;99.90;;;;;;8401255;28;20020;-79
2023/02/27 18:35:33;;;;;;;1.42;0.98;;;-1.40;99.90;;;;;;8398819;28;20077;-80
2023/02/27 18:39:51;;;;;;;1.85;1.25;;;-1.30;99.90;;;;;;8368564;28;20041;-81
2023/02/27 18:43:52;;;;;;;4.45;1.33;;;-1.30;99.90;;;;;;8353596;28;20144;-80
2023/02/27 18:48:00;;;;;;;2.55;1.85;;;-1.30;99.90;;;;;;8347392;28;20057;-80
2023/02/27 18:52:01;;;;;;;1.63;0.65;;;-1.40;99.90;;;;;;8346729;28;20028;-79
2023/02/27 18:56:03;;;;;;;2.03;1.40;;;-1.40;99.90;;;;;;8324841;28;20110;-80
2023/02/27 19:05:03;;;;;;;1.70;1.30;;;-1.30;99.90;;;;;;8202286;28;20338;-78
2023/02/27 19:09:31;;;;;;;4.40;1.55;;;-1.30;99.90;;;;;;8202536;28;20035;-78
2023/02/27 19:13:46;;;;;;;2.45;1.00;;;-1.40;99.90;;;;;;8208440;28;20090;-79
2023/02/27 19:17:47;;;;;;;2.15;1.17;;;-1.30;99.90;;;;;;8349530;28;20108;-79
2023/02/27 19:21:48;;;;;;;1.10;0.90;;;-1.50;99.90;;;;;;8347027;28;20051;-80
2023/02/27 19:30:43;;;;;;;2.67;1.60;;;-1.30;99.90;;;;;;8330603;28;20040;-79
2023/02/27 19:40:23;;;;;;;2.80;1.42;;;-1.30;99.90;;;;;;8340904;28;20037;-78
2023/02/27 19:43:58;;;;;;;1.88;1.27;;;-1.50;99.90;;;;;;8345382;28;20048;-79
2023/02/27 19:48:00;;;;;;;1.63;1.10;;;-1.50;99.90;;;;;;8344300;28;20500;-79
2023/02/27 19:52:01;;;;;;;3.63;1.85;;;-1.60;99.90;;;;;;8344439;28;20040;-79
2023/02/27 19:56:05;;;;;;;2.25;1.45;;;-1.60;99.90;;;;;;8342092;28;20083;-79
2023/02/27 20:00:08;;;;;;;1.58;1.23;;;-1.70;99.90;;;;;;8360213;28;20094;-80
2023/02/27 20:04:10;;;;;;;4.28;2.03;;;-1.80;99.90;;;;;;8343983;28;20103;-80
2023/02/27 20:08:11;;;;;;;2.63;1.10;;;-1.80;99.90;;;;;;8342243;28;20099;-79
2023/02/27 20:12:11;;;;;;;1.83;1.40;;;-1.90;99.90;;;;;;8333938;28;20012;-79
2023/02/27 20:16:15;;;;;;;3.10;1.48;;;-1.90;99.90;;;;;;8358261;28;20527;-79
2023/02/27 20:20:15;;;;;;;3.15;1.52;;;-1.90;99.90;;;;;;8338887;28;20020;-77
2023/02/27 20:24:17;;;;;;;1.60;1.33;;;-1.90;99.90;;;;;;8354094;28;20029;-79
2023/02/27 20:28:18;;;;;;;2.80;1.52;;;-1.90;99.90;;;;;;8350375;28;20354;-80
2023/02/27 20:32:19;;;;;;;7.40;1.45;;;-1.90;99.90;;;;;;8352303;28;20032;-80
2023/02/27 20:36:20;;;;;;;3.30;2.08;;;-1.90;99.90;;;;;;8376783;28;20031;-80
2023/02/27 20:40:20;;;;;;;2.95;2.00;;;-1.90;99.90;;;;;;8348622;28;20018;-79
2023/02/27 20:44:21;;;;;;;2.72;1.80;;;-1.90;99.90;;;;;;8353584;28;20033;-79
2023/02/27 20:48:21;;;;;;;2.28;1.30;;;-1.90;99.90;;;;;;8357564;28;20021;-79
2023/02/27 20:52:22;;;;;;;1.30;1.10;;;-1.90;99.90;;;;;;8356270;28;20159;-79
2023/02/27 20:56:25;;;;;;;5.05;2.15;;;-1.90;99.90;;;;;;8369478;28;20686;-79
2023/02/27 21:00:26;;;;;;;3.55;1.25;;;-1.90;99.90;;;;;;8369381;28;20023;-79
2023/02/27 21:04:41;;;;;;;2.35;1.85;;;-2.00;99.90;;;;;;8369980;28;20437;-78
2023/02/27 21:08:45;;;;;;;2.33;1.38;;;-2.00;99.90;;;;;;8362522;28;20607;-79
2023/02/27 21:12:45;;;;;;;5.30;2.40;;;-2.00;99.90;;;;;;8367757;28;20500;-79
2023/02/27 21:16:46;;;;;;;1.70;1.58;;;-2.00;99.90;;;;;;8382434;28;20071;-79
2023/02/27 21:20:46;;;;;;;4.28;2.00;;;-2.00;99.90;;;;;;8376933;28;20485;-79
2023/02/27 21:24:50;;;;;;;3.30;1.83;;;-2.10;99.90;;;;;;8365546;28;20032;-79
2023/02/27 21:28:54;;;;;;;4.07;2.35;;;-2.10;99.90;;;;;;8401929;28;20013;-79
2023/02/27 21:32:56;;;;;;;2.58;2.03;;;-2.10;99.90;;;;;;8385079;28;20067;-79
2023/02/27 21:36:56;;;;;;;2.30;1.10;;;-2.10;99.90;;;;;;8382224;28;20020;-79
2023/02/27 21:40:57;;;;;;;3.33;2.15;;;-2.10;99.90;;;;;;8372250;28;20028;-79
2023/02/27 21:44:57;;;;;;;3.00;1.67;;;-2.20;99.90;;;;;;8364733;28;20111;-80
2023/02/27 21:48:58;;;;;;;2.50;1.92;;;-2.20;99.90;;;;;;8370659;28;20108;-79